Time;durP1;ratioP1;P1;durP2;ratioP2;P2;SDS_P1;SDS_P2;PMS_P1;PMS_P2;Temp;Humidity;BMP_temperature;BMP_pressure;BME280_temperature;BME280_humidity;BME280_pressure;Samples;Min_cycle;Max_cycle;Signal;HPM_P1;HPM_P2
2021/12/16 00:01:47;;;;;;;43.07;24.17;;;9.30;99.90;;;;;;5063097;28;20216;-65
2021/12/16 00:10:00;;;;;;;43.87;23.33;;;9.30;99.90;;;;;;5062663;28;20324;-65
2021/12/16 00:29:55;;;;;;;43.27;22.83;;;9.30;99.90;;;;;;5068776;28;20276;-65
2021/12/16 00:32:31;;;;;;;41.70;22.63;;;9.30;99.90;;;;;;5072009;28;20279;-65
2021/12/16 00:34:59;;;;;;;45.03;23.17;;;9.30;99.90;;;;;;5070508;28;20208;-65
2021/12/16 00:37:29;;;;;;;43.20;23.03;;;9.30;99.90;;;;;;5068750;28;20283;-65
2021/12/16 00:39:58;;;;;;;42.50;23.30;;;9.30;99.90;;;;;;5074013;28;20358;-65
2021/12/16 00:42:37;;;;;;;46.60;24.50;;;9.30;99.90;;;;;;5069962;28;20251;-65
2021/12/16 00:45:27;;;;;;;40.47;23.83;;;9.30;99.90;;;;;;5069981;28;20200;-65
2021/12/16 00:47:59;;;;;;;47.10;23.70;;;9.30;99.90;;;;;;5081406;28;20215;-65
2021/12/16 00:56:04;;;;;;;43.67;23.97;;;9.30;99.90;;;;;;5055072;28;20242;-65
2021/12/16 00:58:38;;;;;;;42.47;24.10;;;9.30;99.90;;;;;;5065253;28;20231;-65
2021/12/16 01:01:16;;;;;;;41.30;24.50;;;9.30;99.90;;;;;;5066160;28;20242;-65
2021/12/16 01:03:52;;;;;;;51.53;25.03;;;9.40;99.90;;;;;;5071242;28;20226;-65
2021/12/16 01:06:47;;;;;;;42.03;23.43;;;9.30;99.90;;;;;;5061268;28;20196;-65
2021/12/16 01:09:58;;;;;;;48.37;24.43;;;9.40;99.90;;;;;;5070618;28;20212;-65
2021/12/16 01:34:49;;;;;;;46.07;23.90;;;9.30;99.90;;;;;;5072756;28;20208;-65
2021/12/16 01:37:55;;;;;;;44.17;24.63;;;9.30;99.90;;;;;;5067750;28;20803;-65
2021/12/16 01:40:40;;;;;;;46.50;25.33;;;9.30;99.90;;;;;;5067465;28;20223;-65
2021/12/16 01:51:38;;;;;;;48.40;24.73;;;9.30;99.90;;;;;;5068926;28;20567;-65
2021/12/16 01:57:15;;;;;;;44.53;25.20;;;9.40;99.90;;;;;;5138158;27;20549;-64
2021/12/16 01:59:47;;;;;;;47.23;24.03;;;9.40;99.90;;;;;;5116375;27;20194;-64
2021/12/16 02:02:33;;;;;;;47.00;25.70;;;9.30;99.90;;;;;;5113662;27;20547;-64
2021/12/16 02:05:21;;;;;;;44.20;24.73;;;9.30;99.90;;;;;;5119451;27;20264;-63
2021/12/16 02:08:12;;;;;;;50.50;25.00;;;9.30;99.90;;;;;;5118280;27;20737;-64
2021/12/16 02:10:48;;;;;;;48.83;25.77;;;9.30;99.90;;;;;;5124025;27;20232;-64
2021/12/16 02:13:39;;;;;;;50.50;26.23;;;9.30;99.90;;;;;;5117365;27;20620;-63
2021/12/16 02:27:36;;;;;;;46.00;25.73;;;9.30;99.90;;;;;;5126623;27;20225;-64
2021/12/16 02:30:59;;;;;;;49.70;25.87;;;9.30;99.90;;;;;;5119741;27;20234;-63
2021/12/16 02:33:18;;;;;;;49.40;26.90;;;9.30;99.90;;;;;;5122402;27;20206;-64
2021/12/16 02:35:58;;;;;;;49.13;25.63;;;9.30;99.90;;;;;;5113764;27;20706;-63
2021/12/16 02:38:33;;;;;;;52.27;26.80;;;9.30;99.90;;;;;;5115897;27;20199;-64
2021/12/16 02:41:03;;;;;;;55.13;26.87;;;9.30;99.90;;;;;;5113328;27;20205;-64
2021/12/16 02:49:05;;;;;;;56.00;28.20;;;9.30;99.90;;;;;;5112910;27;20665;-63
2021/12/16 02:51:35;;;;;;;49.57;25.97;;;9.30;99.90;;;;;;5117671;27;20694;-64
2021/12/16 02:54:07;;;;;;;52.97;27.07;;;9.30;99.90;;;;;;5123837;27;20229;-64
2021/12/16 02:56:36;;;;;;;51.40;26.90;;;9.30;99.90;;;;;;5113636;27;20721;-64
2021/12/16 02:59:06;;;;;;;52.07;27.03;;;9.30;99.90;;;;;;5113433;27;20202;-64
2021/12/16 03:01:38;;;;;;;52.50;26.17;;;9.30;99.90;;;;;;5119797;27;20198;-64
2021/12/16 03:04:12;;;;;;;53.07;27.77;;;9.30;99.90;;;;;;5117581;27;20273;-64
2021/12/16 03:06:42;;;;;;;50.17;26.10;;;9.30;99.90;;;;;;5108500;27;20191;-63
2021/12/16 03:09:15;;;;;;;61.53;27.23;;;9.30;99.90;;;;;;5103548;27;20192;-63
2021/12/16 03:11:55;;;;;;;49.30;26.30;;;9.30;99.90;;;;;;5097994;27;20195;-64
2021/12/16 03:14:33;;;;;;;52.63;27.73;;;9.30;99.90;;;;;;5100706;27;20204;-63
2021/12/16 03:17:12;;;;;;;52.10;27.00;;;9.30;99.90;;;;;;5098534;27;20226;-64
2021/12/16 03:19:46;;;;;;;52.27;27.43;;;9.30;99.90;;;;;;5104059;27;20268;-64
2021/12/16 03:22:28;;;;;;;49.80;25.90;;;9.30;99.90;;;;;;5098092;27;20203;-64
2021/12/16 03:25:12;;;;;;;56.97;27.97;;;9.30;99.90;;;;;;5129037;27;20734;-64
2021/12/16 03:36:28;;;;;;;59.43;28.00;;;9.30;99.90;;;;;;5083840;27;20222;-64
2021/12/16 03:39:00;;;;;;;50.93;26.73;;;9.30;99.90;;;;;;5102448;27;20201;-63
2021/12/16 03:41:32;;;;;;;50.67;27.33;;;9.20;99.90;;;;;;5105212;27;20198;-64
2021/12/16 03:44:05;;;;;;;53.83;27.43;;;9.20;99.90;;;;;;5106728;27;20210;-64
2021/12/16 03:46:37;;;;;;;54.63;27.27;;;9.20;99.90;;;;;;5098813;27;20195;-64
2021/12/16 03:49:09;;;;;;;49.93;26.83;;;9.30;99.90;;;;;;5136523;27;20212;-64
2021/12/16 03:51:41;;;;;;;46.13;24.37;;;9.30;99.90;;;;;;5099553;27;20191;-64
2021/12/16 03:54:13;;;;;;;54.47;28.00;;;9.30;99.90;;;;;;5106337;27;20206;-63
2021/12/16 03:56:44;;;;;;;57.90;28.47;;;9.30;99.90;;;;;;5096464;28;20351;-64
2021/12/16 03:59:16;;;;;;;55.30;26.73;;;9.30;99.90;;;;;;5094956;28;20669;-63
2021/12/16 04:01:45;;;;;;;54.83;28.70;;;9.20;99.90;;;;;;5095566;27;20281;-63
2021/12/16 04:04:15;;;;;;;55.43;27.10;;;9.20;99.90;;;;;;5103115;28;20198;-64
2021/12/16 04:06:44;;;;;;;58.37;28.20;;;9.30;99.90;;;;;;5092641;27;20191;-64
2021/12/16 04:09:15;;;;;;;48.87;26.37;;;9.20;99.90;;;;;;5094287;27;20285;-63
2021/12/16 04:11:56;;;;;;;57.20;26.60;;;9.30;99.90;;;;;;5100003;28;20206;-64
2021/12/16 04:15:09;;;;;;;57.97;28.33;;;9.20;99.90;;;;;;5098814;28;20263;-64
2021/12/16 04:18:17;;;;;;;52.97;26.93;;;9.20;99.90;;;;;;5106615;27;20198;-64
2021/12/16 04:21:28;;;;;;;54.90;26.67;;;9.20;99.90;;;;;;5101224;28;20206;-64
2021/12/16 04:24:37;;;;;;;50.63;26.33;;;9.20;99.90;;;;;;5092178;27;20199;-64
2021/12/16 04:27:49;;;;;;;57.63;28.00;;;9.20;99.90;;;;;;5095074;27;20270;-64
2021/12/16 04:30:58;;;;;;;54.50;27.90;;;9.20;99.90;;;;;;5106283;27;20688;-63
2021/12/16 04:34:08;;;;;;;54.67;27.20;;;9.30;99.90;;;;;;5101148;27;20233;-64
2021/12/16 04:37:18;;;;;;;51.30;26.90;;;9.30;99.90;;;;;;5101522;27;20211;-63
2021/12/16 04:40:29;;;;;;;53.77;27.53;;;9.30;99.90;;;;;;5098127;27;20199;-64
2021/12/16 04:43:40;;;;;;;55.57;26.40;;;9.30;99.90;;;;;;5098484;28;20213;-64
2021/12/16 04:46:49;;;;;;;56.53;27.37;;;9.30;99.90;;;;;;5101882;27;20198;-64
2021/12/16 04:49:59;;;;;;;56.73;26.87;;;9.30;99.90;;;;;;5105077;27;20289;-64
2021/12/16 04:53:08;;;;;;;52.37;27.27;;;9.30;99.90;;;;;;5106438;27;20209;-64
2021/12/16 04:56:18;;;;;;;56.40;27.47;;;9.30;99.90;;;;;;5103788;27;20301;-64
2021/12/16 04:59:31;;;;;;;56.97;28.60;;;9.30;99.90;;;;;;5095917;28;20206;-64
2021/12/16 05:02:40;;;;;;;52.17;26.73;;;9.30;99.90;;;;;;5096599;28;20207;-64
2021/12/16 05:05:49;;;;;;;51.40;26.27;;;9.30;99.90;;;;;;5096353;27;21678;-64
2021/12/16 05:08:58;;;;;;;55.90;28.17;;;9.30;99.90;;;;;;5096628;27;20205;-64
2021/12/16 05:12:10;;;;;;;56.13;26.73;;;9.20;99.90;;;;;;5100852;27;20315;-64
2021/12/16 05:15:26;;;;;;;55.77;27.10;;;9.30;99.90;;;;;;5085266;27;21909;-64
2021/12/16 05:18:20;;;;;;;57.10;28.23;;;9.30;99.90;;;;;;5112756;27;20229;-64
2021/12/16 05:21:13;;;;;;;58.97;26.93;;;9.30;99.90;;;;;;5099734;27;20187;-64
2021/12/16 05:24:17;;;;;;;59.30;28.73;;;9.30;99.90;;;;;;5103198;27;20198;-64
2021/12/16 05:27:09;;;;;;;57.73;28.77;;;9.30;99.90;;;;;;5097870;28;20191;-64
2021/12/16 05:29:58;;;;;;;53.57;27.23;;;9.30;99.90;;;;;;5103951;27;20214;-64
2021/12/16 05:32:48;;;;;;;55.90;28.07;;;9.30;99.90;;;;;;5100550;27;20698;-63
2021/12/16 05:35:37;;;;;;;60.23;29.03;;;9.30;99.90;;;;;;5093316;28;20282;-65
2021/12/16 05:38:27;;;;;;;54.60;28.30;;;9.20;99.90;;;;;;5093683;28;20685;-64
2021/12/16 05:41:20;;;;;;;55.20;27.33;;;9.20;99.90;;;;;;5103166;28;20217;-64
2021/12/16 05:44:09;;;;;;;51.30;27.27;;;9.20;99.90;;;;;;5105673;28;20266;-64
2021/12/16 05:46:58;;;;;;;60.73;28.57;;;9.20;99.90;;;;;;5094035;28;20194;-64
2021/12/16 05:49:47;;;;;;;56.53;27.80;;;9.20;99.90;;;;;;5096789;28;20299;-64
2021/12/16 05:52:36;;;;;;;51.03;26.43;;;9.20;99.90;;;;;;5101742;28;20226;-64
2021/12/16 05:55:25;;;;;;;58.50;29.07;;;9.20;99.90;;;;;;5096367;28;20227;-64
2021/12/16 05:58:18;;;;;;;54.57;27.27;;;9.20;99.90;;;;;;5091933;28;20219;-64
2021/12/16 06:01:09;;;;;;;57.17;27.97;;;9.10;99.90;;;;;;5099282;28;20222;-64
2021/12/16 06:03:59;;;;;;;63.40;33.43;;;9.10;99.90;;;;;;5100632;28;20283;-64
2021/12/16 06:06:49;;;;;;;61.70;30.57;;;9.20;99.90;;;;;;5097135;28;20214;-64
2021/12/16 06:09:37;;;;;;;58.47;30.10;;;9.20;99.90;;;;;;5094718;28;20190;-64
2021/12/16 06:12:27;;;;;;;55.47;27.47;;;9.20;99.90;;;;;;5093321;28;20703;-64
2021/12/16 06:15:22;;;;;;;57.60;27.80;;;9.20;99.90;;;;;;5093589;28;20225;-64
2021/12/16 06:27:33;;;;;;;65.50;30.50;;;9.20;99.90;;;;;;5097676;28;20201;-63
2021/12/16 06:30:25;;;;;;;62.83;29.90;;;9.20;99.90;;;;;;5098948;28;20352;-64
2021/12/16 06:33:17;;;;;;;54.70;28.57;;;9.20;99.90;;;;;;5101208;28;20218;-64
2021/12/16 06:36:05;;;;;;;66.53;30.63;;;9.20;99.90;;;;;;5092740;28;20839;-64
2021/12/16 06:38:54;;;;;;;57.20;29.73;;;9.20;99.90;;;;;;5101233;28;20766;-64
2021/12/16 06:41:45;;;;;;;57.80;29.53;;;9.20;99.90;;;;;;5098653;27;20196;-63
2021/12/16 06:44:39;;;;;;;65.73;30.07;;;9.20;99.90;;;;;;5105128;27;20196;-64
2021/12/16 06:47:34;;;;;;;57.13;29.23;;;9.20;99.90;;;;;;5109811;27;20618;-64
2021/12/16 06:50:02;;;;;;;60.00;28.70;;;9.20;99.90;;;;;;5100901;27;20194;-64
2021/12/16 06:52:38;;;;;;;57.97;28.20;;;9.20;99.90;;;;;;5102847;28;20206;-64
2021/12/16 06:55:13;;;;;;;60.03;28.60;;;9.10;99.90;;;;;;5101438;27;20231;-63
2021/12/16 06:57:44;;;;;;;56.33;28.20;;;9.10;99.90;;;;;;5103263;27;20218;-64
2021/12/16 07:00:20;;;;;;;56.60;29.40;;;9.20;99.90;;;;;;5100459;27;20223;-63
2021/12/16 07:02:57;;;;;;;75.77;35.30;;;9.10;99.90;;;;;;5104250;28;20214;-64
2021/12/16 07:05:29;;;;;;;77.87;35.23;;;9.10;99.90;;;;;;5103920;27;20198;-64
2021/12/16 07:07:58;;;;;;;79.93;38.43;;;9.10;99.90;;;;;;5108536;27;20182;-64
2021/12/16 07:10:29;;;;;;;70.13;32.27;;;9.10;99.90;;;;;;5108393;27;20202;-64
2021/12/16 07:13:07;;;;;;;63.57;31.93;;;9.10;99.90;;;;;;5104729;27;20199;-64
2021/12/16 07:15:37;;;;;;;64.17;30.23;;;9.10;99.90;;;;;;5103159;27;20199;-64
2021/12/16 07:18:08;;;;;;;65.67;30.97;;;9.10;99.90;;;;;;5104540;27;20210;-64
2021/12/16 07:20:38;;;;;;;55.03;26.67;;;9.10;99.90;;;;;;5112617;27;20191;-64
2021/12/16 07:23:08;;;;;;;56.20;29.07;;;9.10;99.90;;;;;;5111040;27;20237;-64
2021/12/16 07:25:37;;;;;;;62.97;30.33;;;9.10;99.90;;;;;;5104731;27;20193;-64
2021/12/16 07:28:10;;;;;;;56.53;29.00;;;9.10;99.90;;;;;;5104333;27;20198;-64
2021/12/16 07:30:45;;;;;;;63.90;30.93;;;9.10;99.90;;;;;;5114007;27;20209;-64
2021/12/16 07:33:14;;;;;;;65.73;31.50;;;9.10;99.90;;;;;;5100280;27;20221;-63
2021/12/16 07:35:43;;;;;;;67.43;31.13;;;9.10;99.90;;;;;;5103722;28;20206;-64
2021/12/16 07:38:11;;;;;;;60.03;30.47;;;9.10;99.90;;;;;;5105015;27;20219;-64
2021/12/16 07:40:43;;;;;;;62.77;30.13;;;9.10;99.90;;;;;;5115656;27;20203;-64
2021/12/16 07:43:25;;;;;;;57.23;28.93;;;9.10;99.90;;;;;;5098951;28;20194;-63
2021/12/16 07:45:55;;;;;;;54.57;28.70;;;9.10;99.90;;;;;;5098069;27;20205;-64
2021/12/16 07:48:28;;;;;;;61.33;30.57;;;9.10;99.90;;;;;;5098150;28;20378;-64
2021/12/16 07:51:00;;;;;;;67.33;31.23;;;9.10;99.90;;;;;;5100774;27;20765;-64
2021/12/16 07:53:29;;;;;;;58.57;29.20;;;9.10;99.90;;;;;;5098331;28;20192;-63
2021/12/16 07:55:57;;;;;;;67.53;31.00;;;9.10;99.90;;;;;;5100525;27;20717;-64
2021/12/16 07:58:27;;;;;;;65.53;31.73;;;9.10;99.90;;;;;;5104746;27;20219;-64
2021/12/16 08:01:01;;;;;;;65.70;30.90;;;9.10;99.90;;;;;;5098143;27;20204;-64
2021/12/16 08:03:34;;;;;;;60.60;29.20;;;9.10;99.90;;;;;;5103653;27;20218;-64
2021/12/16 08:06:17;;;;;;;61.27;29.90;;;9.10;99.90;;;;;;5091976;28;20210;-64
2021/12/16 08:08:46;;;;;;;63.00;30.40;;;9.10;99.90;;;;;;5095170;27;20267;-63
2021/12/16 08:11:15;;;;;;;55.10;29.00;;;9.10;99.90;;;;;;5106988;28;20683;-63
2021/12/16 08:13:45;;;;;;;63.27;30.77;;;9.20;99.90;;;;;;5107778;27;20195;-64
2021/12/16 08:16:13;;;;;;;61.87;30.80;;;9.20;99.90;;;;;;5107656;27;20203;-64
2021/12/16 08:18:45;;;;;;;64.93;32.07;;;9.10;99.90;;;;;;5105203;27;20207;-64
2021/12/16 08:21:13;;;;;;;76.67;33.33;;;9.20;99.90;;;;;;5099735;27;20203;-63
2021/12/16 08:23:41;;;;;;;65.80;32.20;;;9.20;99.90;;;;;;5104928;27;20194;-64
2021/12/16 08:26:10;;;;;;;57.07;30.13;;;9.20;99.90;;;;;;5102502;27;20196;-64
2021/12/16 08:28:38;;;;;;;57.67;27.93;;;9.20;99.90;;;;;;5106930;27;20198;-63
2021/12/16 08:31:08;;;;;;;67.23;31.50;;;9.20;99.90;;;;;;5119430;27;20209;-64
2021/12/16 08:33:37;;;;;;;65.73;31.17;;;9.20;99.90;;;;;;5098915;27;20199;-64
2021/12/16 08:36:07;;;;;;;71.30;33.50;;;9.20;99.90;;;;;;5099791;27;20535;-63
2021/12/16 08:38:37;;;;;;;68.80;31.47;;;9.20;99.90;;;;;;5093705;27;20248;-64
2021/12/16 08:41:10;;;;;;;58.57;30.37;;;9.30;99.90;;;;;;5098035;28;20194;-64
2021/12/16 08:43:40;;;;;;;66.23;31.30;;;9.30;99.90;;;;;;5108165;27;20195;-64
2021/12/16 08:46:12;;;;;;;62.33;30.73;;;9.30;99.90;;;;;;5108393;27;20347;-66
2021/12/16 08:48:46;;;;;;;57.87;29.27;;;9.30;99.90;;;;;;5112506;27;20243;-66
2021/12/16 08:51:17;;;;;;;65.00;30.63;;;9.30;99.90;;;;;;5105909;27;20206;-66
2021/12/16 08:53:46;;;;;;;63.83;30.07;;;9.30;99.90;;;;;;5100207;27;20212;-66
2021/12/16 08:56:14;;;;;;;64.97;33.17;;;9.30;99.90;;;;;;5100199;27;20234;-67
2021/12/16 08:58:43;;;;;;;63.30;31.27;;;9.30;99.90;;;;;;5100646;27;20302;-66
2021/12/16 09:01:16;;;;;;;60.60;31.07;;;9.30;99.90;;;;;;5092293;28;20206;-66
2021/12/16 09:03:45;;;;;;;64.83;31.33;;;9.30;99.90;;;;;;5102055;27;20197;-67
2021/12/16 09:06:14;;;;;;;65.90;31.83;;;9.30;99.90;;;;;;5105420;27;20202;-64
2021/12/16 09:08:44;;;;;;;60.20;30.67;;;9.30;99.90;;;;;;5110519;27;20199;-64
2021/12/16 09:11:18;;;;;;;65.17;30.60;;;9.30;99.90;;;;;;5101077;27;20259;-63
2021/12/16 09:13:48;;;;;;;71.13;34.30;;;9.30;99.90;;;;;;5112806;27;20200;-63
2021/12/16 09:16:22;;;;;;;83.73;39.07;;;9.40;99.90;;;;;;5101562;27;20202;-63
2021/12/16 09:18:52;;;;;;;63.87;34.13;;;9.40;99.90;;;;;;5101918;27;20581;-64
2021/12/16 09:21:24;;;;;;;72.27;34.17;;;9.40;99.90;;;;;;5097235;28;21294;-63
2021/12/16 09:23:54;;;;;;;65.13;34.07;;;9.40;99.90;;;;;;5106451;27;20202;-63
2021/12/16 09:26:24;;;;;;;58.93;29.77;;;9.40;99.90;;;;;;5106933;27;20203;-64
2021/12/16 09:28:54;;;;;;;61.97;31.37;;;9.40;99.90;;;;;;5112544;27;20198;-64
2021/12/16 09:31:27;;;;;;;64.20;31.17;;;9.50;99.90;;;;;;5121124;27;20260;-64
2021/12/16 09:34:05;;;;;;;62.47;32.10;;;9.50;99.90;;;;;;5105089;27;20650;-63
2021/12/16 09:36:36;;;;;;;58.03;29.70;;;9.50;99.90;;;;;;5102144;27;20205;-63
2021/12/16 09:39:07;;;;;;;60.30;31.43;;;9.50;99.90;;;;;;5103913;27;20892;-64
2021/12/16 09:41:36;;;;;;;56.07;29.33;;;9.50;99.90;;;;;;5108996;27;20191;-64
2021/12/16 09:44:05;;;;;;;65.60;32.17;;;9.60;99.90;;;;;;5109307;27;20254;-64
2021/12/16 09:46:35;;;;;;;62.17;30.07;;;9.60;99.90;;;;;;5104129;28;20283;-64
2021/12/16 09:49:04;;;;;;;58.43;30.23;;;9.60;99.90;;;;;;5114345;27;20225;-63
2021/12/16 09:51:35;;;;;;;55.30;29.50;;;9.60;99.90;;;;;;5108814;27;20202;-64
2021/12/16 09:54:08;;;;;;;57.50;29.93;;;9.60;99.90;;;;;;5109358;27;20198;-64
2021/12/16 09:56:39;;;;;;;55.87;29.07;;;9.60;99.90;;;;;;5110922;28;20312;-63
2021/12/16 09:59:10;;;;;;;67.13;30.43;;;9.70;99.90;;;;;;5105532;28;20637;-64
2021/12/16 10:01:40;;;;;;;62.63;30.90;;;9.70;99.90;;;;;;5106550;28;20661;-64
2021/12/16 10:04:13;;;;;;;54.83;30.13;;;9.70;99.90;;;;;;5108071;28;20195;-64
2021/12/16 10:06:43;;;;;;;57.70;30.03;;;9.80;99.90;;;;;;5106996;28;20201;-63
2021/12/16 10:09:13;;;;;;;59.70;31.37;;;9.80;99.90;;;;;;5103113;28;20202;-64
2021/12/16 10:11:46;;;;;;;66.00;32.20;;;9.80;99.90;;;;;;5105014;28;20209;-64
2021/12/16 10:14:33;;;;;;;57.93;30.03;;;9.80;99.90;;;;;;5109349;28;20203;-64
2021/12/16 10:17:25;;;;;;;57.97;30.17;;;9.80;99.90;;;;;;5105803;28;20194;-64
2021/12/16 10:19:57;;;;;;;62.90;31.77;;;9.90;99.90;;;;;;5107502;27;20409;-64
2021/12/16 10:22:32;;;;;;;59.53;30.03;;;9.90;99.90;;;;;;5103735;27;20206;-64
2021/12/16 10:25:17;;;;;;;60.77;31.70;;;10.00;99.90;;;;;;5107662;27;20199;-64
2021/12/16 10:27:58;;;;;;;66.17;31.37;;;10.00;99.90;;;;;;5099790;27;20202;-64
2021/12/16 10:30:35;;;;;;;61.50;30.20;;;10.00;99.90;;;;;;5095134;27;20666;-64
2021/12/16 10:33:15;;;;;;;66.90;33.53;;;10.10;99.90;;;;;;5097597;28;20202;-64
2021/12/16 10:35:47;;;;;;;63.60;32.83;;;10.10;99.90;;;;;;5108431;27;20191;-64
2021/12/16 10:38:19;;;;;;;59.13;30.83;;;10.20;99.90;;;;;;5107948;27;20224;-64
2021/12/16 10:40:50;;;;;;;53.30;29.37;;;10.20;99.90;;;;;;5106098;27;20310;-64
2021/12/16 10:43:28;;;;;;;60.93;30.53;;;10.30;99.90;;;;;;5103956;27;20290;-63
2021/12/16 10:46:00;;;;;;;62.60;34.33;;;10.30;99.90;;;;;;5103773;27;20298;-64
2021/12/16 10:48:33;;;;;;;70.13;34.83;;;10.40;99.90;;;;;;5104357;27;20218;-64
2021/12/16 10:51:19;;;;;;;70.13;40.17;;;10.40;99.90;;;;;;5098389;27;20202;-64
2021/12/16 10:54:05;;;;;;;65.17;34.43;;;10.50;99.90;;;;;;5110300;27;20281;-64
2021/12/16 10:56:40;;;;;;;63.67;30.37;;;10.50;99.90;;;;;;5099298;28;20237;-64
2021/12/16 10:59:12;;;;;;;55.97;29.50;;;10.60;99.90;;;;;;5102495;28;20202;-64
2021/12/16 11:01:52;;;;;;;66.93;35.40;;;10.70;99.90;;;;;;5101071;27;20207;-64
2021/12/16 11:04:29;;;;;;;56.03;28.67;;;10.70;99.90;;;;;;5098520;27;20732;-64
2021/12/16 11:07:01;;;;;;;54.77;29.73;;;10.70;99.90;;;;;;5103186;27;20210;-65
2021/12/16 11:09:47;;;;;;;56.70;30.07;;;10.80;99.90;;;;;;5101167;27;20202;-65
2021/12/16 11:12:39;;;;;;;53.27;28.83;;;10.80;99.90;;;;;;5104107;27;20195;-64
2021/12/16 11:15:16;;;;;;;55.20;28.33;;;10.90;99.90;;;;;;5098469;27;20209;-65
2021/12/16 11:17:47;;;;;;;55.73;27.70;;;11.00;99.90;;;;;;5096473;27;20238;-64
2021/12/16 11:20:28;;;;;;;52.27;27.23;;;11.00;99.90;;;;;;5097663;28;20231;-64
2021/12/16 11:22:59;;;;;;;49.97;27.60;;;11.10;99.90;;;;;;5099449;28;20534;-64
2021/12/16 11:25:32;;;;;;;49.70;27.77;;;11.20;99.90;;;;;;5103488;27;20275;-65
2021/12/16 11:28:18;;;;;;;53.03;26.97;;;11.20;99.90;;;;;;5100046;28;20259;-64
2021/12/16 11:30:50;;;;;;;53.03;27.97;;;11.20;99.90;;;;;;5093501;28;20868;-64
2021/12/16 11:33:26;;;;;;;44.77;26.67;;;11.30;99.90;;;;;;5107338;27;20208;-64
2021/12/16 11:35:59;;;;;;;48.77;27.00;;;11.40;99.90;;;;;;5098611;28;20199;-64
2021/12/16 11:38:35;;;;;;;43.00;25.83;;;11.50;99.90;;;;;;5092257;27;20214;-64
2021/12/16 11:41:12;;;;;;;44.40;24.97;;;11.50;99.90;;;;;;5100744;27;20216;-65
2021/12/16 11:43:55;;;;;;;45.30;25.17;;;11.60;99.90;;;;;;5100125;27;20203;-65
2021/12/16 11:46:28;;;;;;;42.80;25.53;;;11.60;99.90;;;;;;5097846;27;20676;-65
2021/12/16 11:49:20;;;;;;;41.63;24.10;;;11.70;99.90;;;;;;5107053;27;20222;-64
2021/12/16 11:51:56;;;;;;;43.67;24.47;;;11.70;99.90;;;;;;5098563;27;20195;-65
2021/12/16 11:54:29;;;;;;;45.70;26.17;;;11.70;99.90;;;;;;5096344;27;20263;-65
2021/12/16 11:57:00;;;;;;;40.93;24.57;;;11.80;99.90;;;;;;5098304;28;20717;-65
2021/12/16 11:59:32;;;;;;;43.73;25.03;;;11.80;99.90;;;;;;5097061;27;20203;-64
2021/12/16 12:02:02;;;;;;;49.60;25.70;;;11.80;99.90;;;;;;5098887;27;20593;-65
2021/12/16 12:04:34;;;;;;;44.53;26.67;;;11.80;99.90;;;;;;5098706;27;20199;-65
2021/12/16 12:07:13;;;;;;;43.43;26.50;;;11.80;99.90;;;;;;5103531;27;20552;-64
2021/12/16 12:09:44;;;;;;;47.83;25.77;;;11.90;99.90;;;;;;5095651;27;20199;-65
2021/12/16 12:12:13;;;;;;;47.73;26.67;;;11.90;99.90;;;;;;5101586;27;20202;-64
2021/12/16 12:14:45;;;;;;;47.03;26.13;;;11.90;99.90;;;;;;5105760;27;20195;-65
2021/12/16 12:17:20;;;;;;;44.27;25.57;;;12.00;99.90;;;;;;5102762;28;20595;-64
2021/12/16 12:19:52;;;;;;;42.20;24.50;;;12.10;99.90;;;;;;5099867;27;20278;-65
2021/12/16 12:22:26;;;;;;;44.47;25.90;;;12.10;99.90;;;;;;5108893;27;20648;-65
2021/12/16 12:24:56;;;;;;;42.70;25.07;;;12.10;99.90;;;;;;5096890;27;20206;-65
2021/12/16 12:27:26;;;;;;;48.43;25.27;;;12.10;99.90;;;;;;5102362;27;20213;-65
2021/12/16 12:30:00;;;;;;;40.93;24.13;;;12.10;99.90;;;;;;5109026;27;20206;-65
2021/12/16 12:32:32;;;;;;;42.07;23.37;;;12.20;99.90;;;;;;5101338;27;20573;-65
2021/12/16 12:35:04;;;;;;;44.43;23.53;;;12.20;99.90;;;;;;5104408;27;20206;-65
2021/12/16 12:37:40;;;;;;;41.87;24.10;;;12.20;99.90;;;;;;5104960;28;20194;-64
2021/12/16 12:40:12;;;;;;;40.97;21.97;;;12.20;99.90;;;;;;5104103;27;20205;-65
2021/12/16 12:42:42;;;;;;;41.13;23.40;;;12.20;99.90;;;;;;5107156;27;20709;-65
2021/12/16 12:45:13;;;;;;;39.03;23.63;;;12.20;99.90;;;;;;5101933;27;20589;-64
2021/12/16 12:47:45;;;;;;;48.03;24.10;;;12.20;99.90;;;;;;5096057;27;20206;-65
2021/12/16 12:50:18;;;;;;;41.60;23.87;;;12.20;99.90;;;;;;5101049;27;20205;-65
2021/12/16 12:52:51;;;;;;;45.60;22.90;;;12.20;99.90;;;;;;5103569;27;20754;-65
2021/12/16 12:55:29;;;;;;;51.23;25.60;;;12.20;99.90;;;;;;5102336;27;20639;-64
2021/12/16 12:58:04;;;;;;;44.90;25.50;;;12.20;99.90;;;;;;5092539;28;20290;-64
2021/12/16 13:00:37;;;;;;;39.10;23.07;;;12.20;99.90;;;;;;5108565;27;20289;-65
2021/12/16 13:03:10;;;;;;;41.83;22.27;;;12.20;99.90;;;;;;5100729;27;20207;-65
2021/12/16 13:05:39;;;;;;;44.97;24.13;;;12.10;99.90;;;;;;5100725;28;20233;-64
2021/12/16 13:08:12;;;;;;;37.83;22.67;;;12.10;99.90;;;;;;5102232;28;20278;-65
2021/12/16 13:10:43;;;;;;;50.37;24.97;;;12.00;99.90;;;;;;5103419;27;20274;-65
2021/12/16 13:24:56;;;;;;;43.20;22.97;;;11.90;99.90;;;;;;5095558;28;20692;-65
2021/12/16 13:27:38;;;;;;;43.63;24.27;;;11.80;99.90;;;;;;5093063;27;20191;-65
2021/12/16 13:30:20;;;;;;;48.67;24.77;;;11.80;99.90;;;;;;5094867;28;20757;-65
2021/12/16 13:33:20;;;;;;;42.93;24.70;;;11.80;99.90;;;;;;5102904;27;20195;-65
2021/12/16 13:36:00;;;;;;;45.57;24.63;;;11.70;99.90;;;;;;5096240;27;20196;-65
2021/12/16 13:38:40;;;;;;;40.77;23.63;;;11.80;99.90;;;;;;5101513;27;20205;-65
2021/12/16 13:41:14;;;;;;;42.07;25.30;;;11.80;99.90;;;;;;5095368;28;20209;-64
2021/12/16 13:43:57;;;;;;;49.30;27.30;;;11.80;99.90;;;;;;5101511;28;20203;-65
2021/12/16 13:46:39;;;;;;;48.33;27.50;;;11.90;99.90;;;;;;5104908;28;20202;-65
2021/12/16 13:58:25;;;;;;;45.87;25.80;;;11.90;99.90;;;;;;5104332;28;20210;-65
2021/12/16 14:01:19;;;;;;;43.53;25.13;;;11.80;99.90;;;;;;5099578;28;20561;-65
2021/12/16 14:03:53;;;;;;;46.27;26.27;;;11.80;99.90;;;;;;5101975;28;20191;-65
2021/12/16 14:06:37;;;;;;;38.33;23.93;;;11.70;99.90;;;;;;5099155;28;20226;-65
2021/12/16 14:09:18;;;;;;;49.87;26.13;;;11.60;99.90;;;;;;5094253;28;20220;-65
2021/12/16 14:15:09;;;;;;;46.00;25.40;;;11.30;99.90;;;;;;5086913;27;20564;-66
2021/12/16 14:17:49;;;;;;;49.90;25.60;;;11.20;99.90;;;;;;5066296;28;20609;-67
2021/12/16 14:23:18;;;;;;;45.43;25.30;;;10.90;99.90;;;;;;5058589;28;20195;-66
2021/12/16 14:37:23;;;;;;;53.97;27.97;;;10.50;99.90;;;;;;5060324;28;20593;-66
2021/12/16 14:42:48;;;;;;;62.03;32.07;;;10.40;99.90;;;;;;5058606;28;20205;-66
2021/12/16 14:50:49;;;;;;;53.90;29.10;;;10.20;99.90;;;;;;5052348;28;20201;-66
2021/12/16 14:53:22;;;;;;;55.67;29.03;;;10.10;99.90;;;;;;5059311;28;20227;-66
2021/12/16 14:55:53;;;;;;;57.30;31.63;;;10.10;99.90;;;;;;5056605;28;20229;-66
2021/12/16 14:58:23;;;;;;;62.50;35.47;;;10.10;99.90;;;;;;5048173;28;20212;-66
2021/12/16 15:00:56;;;;;;;60.47;32.60;;;10.10;99.90;;;;;;5054950;28;20643;-66
2021/12/16 15:03:33;;;;;;;56.50;30.87;;;10.00;99.90;;;;;;5055075;28;20204;-66
2021/12/16 15:06:05;;;;;;;53.30;30.93;;;9.90;99.90;;;;;;5048285;28;20200;-66
2021/12/16 15:08:42;;;;;;;64.50;32.43;;;9.80;99.90;;;;;;5051886;28;20668;-66
2021/12/16 15:11:13;;;;;;;58.30;30.43;;;9.80;99.90;;;;;;5051487;28;20188;-66
2021/12/16 15:13:48;;;;;;;59.47;32.00;;;9.70;99.90;;;;;;5052892;28;20298;-66
2021/12/16 15:16:36;;;;;;;69.23;32.90;;;9.60;99.90;;;;;;5054992;28;20243;-66
2021/12/16 15:39:09;;;;;;;54.23;27.40;;;8.60;99.90;;;;;;5043041;28;20276;-66
2021/12/16 15:44:24;;;;;;;62.10;32.10;;;8.30;99.90;;;;;;5035717;28;20554;-66
2021/12/16 15:46:53;;;;;;;64.07;32.20;;;8.20;99.90;;;;;;5043196;28;20201;-66
2021/12/16 15:49:24;;;;;;;64.77;30.10;;;8.20;99.90;;;;;;5040390;28;20727;-66
2021/12/16 15:51:54;;;;;;;71.97;34.67;;;8.10;99.90;;;;;;5036345;28;20777;-66
2021/12/16 15:54:23;;;;;;;79.10;37.03;;;8.00;99.90;;;;;;5039752;28;20281;-65
2021/12/16 15:56:53;;;;;;;66.70;33.20;;;8.00;99.90;;;;;;5041460;28;20208;-66
2021/12/16 15:59:28;;;;;;;65.80;31.33;;;7.90;99.90;;;;;;5037373;28;20582;-66
2021/12/16 16:01:59;;;;;;;66.20;31.83;;;7.80;99.90;;;;;;5043235;28;20298;-66
2021/12/16 16:04:31;;;;;;;50.73;27.17;;;7.70;99.90;;;;;;5036192;28;20650;-65
2021/12/16 16:07:04;;;;;;;47.23;25.17;;;7.50;99.90;;;;;;5034434;28;20211;-66
2021/12/16 16:09:38;;;;;;;42.30;23.63;;;7.40;99.90;;;;;;5033608;28;20218;-65
2021/12/16 16:12:10;;;;;;;36.63;21.47;;;7.30;99.90;;;;;;5036987;28;20200;-66
2021/12/16 16:14:44;;;;;;;43.40;23.87;;;7.20;99.90;;;;;;5033771;28;20665;-66
2021/12/16 16:17:16;;;;;;;59.30;28.03;;;7.10;99.90;;;;;;5034497;28;20197;-66